createdAt,value
2019-05-30T00:00:16.845Z,13.50
2019-05-30T00:02:38.627Z,13.50
2019-05-30T00:05:07.462Z,13.40
2019-05-30T00:07:35.925Z,13.40
2019-05-30T00:10:06.378Z,13.40
2019-05-30T00:12:35.124Z,13.40
2019-05-30T00:15:06.476Z,13.30
2019-05-30T00:17:35.267Z,13.20
2019-05-30T00:20:05.943Z,13.20
2019-05-30T00:22:34.852Z,13.20
2019-05-30T00:25:06.274Z,13.20
2019-05-30T00:27:35.111Z,13.20
2019-05-30T00:30:04.227Z,13.10
2019-05-30T00:32:33.126Z,13.10
2019-05-30T00:35:02.082Z,13.20
2019-05-30T00:37:30.844Z,13.20
2019-05-30T00:39:59.876Z,13.20
2019-05-30T00:42:28.702Z,13.20
2019-05-30T00:44:57.891Z,13.20
2019-05-30T00:47:26.632Z,13.10
2019-05-30T00:49:56.226Z,13.10
2019-05-30T00:52:24.998Z,13.00
2019-05-30T00:54:53.656Z,13.10
2019-05-30T00:57:22.398Z,13.00
2019-05-30T00:59:51.248Z,13.00
2019-05-30T01:02:19.952Z,13.00
2019-05-30T01:04:48.635Z,13.00
2019-05-30T01:07:17.375Z,13.10
2019-05-30T01:09:45.946Z,13.10
2019-05-30T01:12:14.492Z,13.20
2019-05-30T01:14:43.377Z,13.20
2019-05-30T01:17:11.933Z,13.20
2019-05-30T01:19:40.722Z,13.20
2019-05-30T01:22:09.573Z,13.20
2019-05-30T01:24:38.188Z,13.30
2019-05-30T01:27:07.609Z,13.30
2019-05-30T01:29:36.226Z,13.40
2019-05-30T01:32:22.265Z,13.40
2019-05-30T01:34:51.037Z,13.40
2019-05-30T01:37:19.642Z,13.40
2019-05-30T01:39:48.358Z,13.40
2019-05-30T01:42:17.113Z,13.40
2019-05-30T01:44:45.775Z,13.40
2019-05-30T01:47:14.568Z,13.40
2019-05-30T01:49:43.371Z,13.30
2019-05-30T01:52:12.046Z,13.30
2019-05-30T01:54:40.799Z,13.20
2019-05-30T01:57:09.571Z,13.20
2019-05-30T01:59:38.040Z,13.20
2019-05-30T02:02:07.216Z,13.20
2019-05-30T02:04:36.039Z,13.30
2019-05-30T02:07:05.387Z,13.30
2019-05-30T02:09:34.111Z,13.30
2019-05-30T02:12:38.652Z,13.30
2019-05-30T02:15:07.865Z,13.30
2019-05-30T02:17:36.531Z,13.40
2019-05-30T02:20:07.944Z,13.40
2019-05-30T02:22:35.836Z,13.40
2019-05-30T02:25:06.093Z,13.50
2019-05-30T02:27:34.709Z,13.40
2019-05-30T02:30:06.653Z,13.40
2019-05-30T02:32:35.371Z,13.40
2019-05-30T02:35:05.309Z,13.50
2019-05-30T02:37:35.370Z,13.50
2019-05-30T02:40:09.820Z,13.60
2019-05-30T02:42:37.381Z,13.50
2019-05-30T02:45:07.995Z,13.50
2019-05-30T02:47:36.899Z,13.50
2019-05-30T02:50:11.558Z,13.50
2019-05-30T02:52:40.326Z,13.50
2019-05-30T02:55:12.576Z,13.40
2019-05-30T02:57:40.653Z,13.40
2019-05-30T03:00:16.737Z,13.50
2019-05-30T03:02:41.434Z,13.50
2019-05-30T03:05:12.673Z,13.50
2019-05-30T03:07:40.740Z,13.50
2019-05-30T03:10:14.360Z,13.50
2019-05-30T03:12:40.393Z,13.50
2019-05-30T03:15:12.457Z,13.50
2019-05-30T03:17:40.189Z,13.50
2019-05-30T03:20:20.295Z,13.50
2019-05-30T03:22:40.622Z,13.50
2019-05-30T03:25:12.674Z,13.50
2019-05-30T03:27:40.834Z,13.60
2019-05-30T03:30:24.834Z,13.50
2019-05-30T03:35:24.048Z,13.50
2019-05-30T03:37:42.826Z,13.50
2019-05-30T03:40:11.852Z,13.50
2019-05-30T03:42:41.050Z,13.50
2019-05-30T03:45:11.911Z,13.50
2019-05-30T03:47:43.959Z,13.50
2019-05-30T03:50:17.448Z,13.50
2019-05-30T03:52:46.208Z,13.40
2019-05-30T03:55:17.946Z,13.40
2019-05-30T03:58:01.584Z,13.40
2019-05-30T04:00:39.010Z,13.50
2019-05-30T04:03:19.991Z,13.50
2019-05-30T04:05:54.539Z,13.40
2019-05-30T04:08:25.043Z,13.50
2019-05-30T04:10:56.485Z,13.50
2019-05-30T04:13:28.512Z,13.60
2019-05-30T04:15:57.706Z,13.60
2019-05-30T04:18:26.813Z,13.60
2019-05-30T04:20:55.899Z,13.60
2019-05-30T04:23:24.978Z,13.60
2019-05-30T04:25:53.974Z,13.60
2019-05-30T04:28:23.185Z,13.60
2019-05-30T04:30:52.262Z,13.60
2019-05-30T04:33:32.498Z,13.60
2019-05-30T04:35:52.267Z,13.60
2019-05-30T04:38:21.365Z,13.70
2019-05-30T04:40:50.469Z,13.70
2019-05-30T04:43:20.205Z,13.80
2019-05-30T04:45:49.590Z,13.80
2019-05-30T04:48:20.542Z,13.80
2019-05-30T04:50:49.426Z,13.80
2019-05-30T04:53:18.638Z,13.90
2019-05-30T04:55:49.641Z,13.90
2019-05-30T04:58:21.748Z,14.00
2019-05-30T05:00:49.697Z,14.00
2019-05-30T05:03:36.972Z,14.10
2019-05-30T05:05:49.889Z,14.10
2019-05-30T05:08:19.924Z,14.10
2019-05-30T05:10:49.057Z,14.20
2019-05-30T05:13:18.379Z,14.20
2019-05-30T05:15:47.577Z,14.30
2019-05-30T05:18:17.003Z,14.30
2019-05-30T05:20:45.947Z,14.40
2019-05-30T05:23:15.125Z,14.50
2019-05-30T05:25:59.495Z,14.50
2019-05-30T05:28:15.772Z,14.60
2019-05-30T05:30:45.022Z,14.70
2019-05-30T05:33:14.533Z,14.80
2019-05-30T05:35:43.838Z,14.80
2019-05-30T05:38:13.103Z,14.80
2019-05-30T05:40:42.274Z,14.90
2019-05-30T05:43:11.357Z,15.00
2019-05-30T05:45:40.499Z,15.10
2019-05-30T05:48:09.520Z,15.30
2019-05-30T05:50:38.684Z,15.30
2019-05-30T05:53:07.713Z,15.30
2019-05-30T05:55:36.819Z,15.40
2019-05-30T05:58:06.036Z,15.50
2019-05-30T06:00:35.117Z,15.50
2019-05-30T06:03:04.210Z,15.60
2019-05-30T06:05:33.387Z,15.70
2019-05-30T06:08:02.552Z,15.80
2019-05-30T06:10:31.820Z,15.90
2019-05-30T06:13:00.966Z,16.00
2019-05-30T06:15:29.959Z,16.10
2019-05-30T06:17:59.150Z,16.20
2019-05-30T06:20:28.452Z,16.10
2019-05-30T06:22:57.439Z,16.20
2019-05-30T06:25:30.363Z,16.20
2019-05-30T06:27:57.666Z,16.30
2019-05-30T06:30:26.856Z,16.20
2019-05-30T06:32:55.925Z,16.20
2019-05-30T06:35:25.154Z,16.20
2019-05-30T06:37:54.249Z,16.30
2019-05-30T06:40:23.721Z,16.30
2019-05-30T06:42:53.075Z,16.30
2019-05-30T06:45:24.070Z,16.30
2019-05-30T06:47:53.089Z,16.30
2019-05-30T06:50:22.568Z,16.40
2019-05-30T06:52:51.579Z,16.40
2019-05-30T06:55:21.110Z,16.30
2019-05-30T06:57:50.058Z,16.10
2019-05-30T07:00:19.882Z,16.10
2019-05-30T07:02:48.980Z,16.20
2019-05-30T07:05:18.324Z,16.20
2019-05-30T07:07:47.763Z,16.10
2019-05-30T07:10:17.087Z,16.10
2019-05-30T07:12:46.108Z,16.10
2019-05-30T07:15:15.810Z,16.10
2019-05-30T07:17:44.948Z,16.30
2019-05-30T07:20:14.234Z,16.20
2019-05-30T07:22:43.276Z,16.20
2019-05-30T07:25:13.161Z,16.30
2019-05-30T07:27:42.301Z,16.40
2019-05-30T07:30:11.567Z,16.40
2019-05-30T07:32:40.776Z,16.40
2019-05-30T07:35:10.919Z,16.50
2019-05-30T07:37:40.002Z,16.50
2019-05-30T07:40:10.556Z,16.50
2019-05-30T07:42:39.622Z,16.50
2019-05-30T07:45:10.874Z,16.60
2019-05-30T07:47:39.910Z,16.60
2019-05-30T07:50:10.867Z,16.70
2019-05-30T07:52:40.006Z,17.00
2019-05-30T07:55:12.328Z,17.10
2019-05-30T07:57:41.860Z,17.20
2019-05-30T08:00:15.811Z,17.20
2019-05-30T08:02:45.111Z,17.30
2019-05-30T08:05:24.295Z,17.30
2019-05-30T08:07:46.160Z,17.20
2019-05-30T08:10:16.264Z,16.90
2019-05-30T08:12:45.504Z,16.70
2019-05-30T08:15:15.040Z,16.80
2019-05-30T08:17:44.559Z,16.70
2019-05-30T08:20:14.224Z,16.90
2019-05-30T08:22:43.316Z,17.10
2019-05-30T08:25:13.729Z,17.30
2019-05-30T08:27:42.800Z,17.20
2019-05-30T08:30:14.132Z,17.20
2019-05-30T08:32:45.021Z,17.20
2019-05-30T08:35:14.555Z,17.30
2019-05-30T08:37:43.645Z,17.20
2019-05-30T08:40:13.665Z,17.20
2019-05-30T08:42:43.075Z,17.40
2019-05-30T08:45:13.063Z,17.70
2019-05-30T08:47:41.965Z,18.10
2019-05-30T08:50:13.071Z,18.40
2019-05-30T08:52:42.244Z,18.50
2019-05-30T08:55:13.216Z,18.50
2019-05-30T08:57:42.296Z,18.70
2019-05-30T09:00:14.006Z,19.00
2019-05-30T09:02:43.158Z,19.10
2019-05-30T09:05:12.403Z,18.90
2019-05-30T09:07:42.902Z,18.80
2019-05-30T09:10:12.448Z,18.60
2019-05-30T09:12:45.228Z,18.70
2019-05-30T09:15:15.017Z,18.80
2019-05-30T09:17:44.799Z,18.50
2019-05-30T09:20:15.658Z,18.50
2019-05-30T09:22:45.546Z,18.40
2019-05-30T09:25:17.162Z,18.40
2019-05-30T09:27:46.563Z,18.20
2019-05-30T09:30:16.912Z,18.00
2019-05-30T09:32:46.997Z,17.80
2019-05-30T09:35:16.812Z,17.90
2019-05-30T09:37:46.080Z,18.10
2019-05-30T09:40:15.672Z,18.50
2019-05-30T09:42:46.621Z,18.70
2019-05-30T09:45:17.893Z,18.80
2019-05-30T09:47:49.200Z,18.90
2019-05-30T09:50:18.830Z,18.90
2019-05-30T09:52:49.417Z,19.10
2019-05-30T09:55:21.020Z,19.80
2019-05-30T09:57:50.074Z,20.60
2019-05-30T10:00:21.506Z,21.10
2019-05-30T10:02:50.712Z,20.60
2019-05-30T10:05:24.180Z,20.50
2019-05-30T10:07:52.834Z,20.30
2019-05-30T10:10:23.200Z,20.30
2019-05-30T10:12:52.648Z,20.40
2019-05-30T10:15:22.245Z,20.20
2019-05-30T10:17:53.853Z,20.10
2019-05-30T10:20:22.296Z,20.20
2019-05-30T10:22:53.264Z,20.00
2019-05-30T10:25:22.380Z,20.00
2019-05-30T10:27:54.111Z,20.00
2019-05-30T10:30:22.488Z,20.30
2019-05-30T10:32:52.037Z,20.60
2019-05-30T10:35:21.367Z,20.40
2019-05-30T10:37:50.955Z,20.20
2019-05-30T10:40:20.382Z,19.90
2019-05-30T10:42:51.082Z,19.60
2019-05-30T10:45:20.595Z,19.80
2019-05-30T10:47:49.723Z,20.00
2019-05-30T10:50:19.137Z,20.10
2019-05-30T10:52:49.304Z,20.50
2019-05-30T10:55:19.266Z,20.90
2019-05-30T10:57:49.907Z,20.90
2019-05-30T11:00:20.470Z,21.00
2019-05-30T11:02:51.079Z,21.30
2019-05-30T11:05:20.739Z,21.00
2019-05-30T11:08:07.457Z,20.60
2019-05-30T11:10:41.468Z,20.80
2019-05-30T11:13:13.166Z,20.60
2019-05-30T11:15:42.234Z,20.80
2019-05-30T11:18:11.920Z,20.60
2019-05-30T11:20:41.240Z,20.70
2019-05-30T11:23:10.344Z,20.80
2019-05-30T11:25:39.666Z,20.90
2019-05-30T11:28:08.864Z,20.80
2019-05-30T11:30:38.064Z,20.90
2019-05-30T11:33:07.375Z,20.80
2019-05-30T11:35:37.663Z,20.60
2019-05-30T11:38:06.786Z,20.10
2019-05-30T11:40:36.423Z,19.80
2019-05-30T11:43:05.757Z,19.80
2019-05-30T11:45:34.936Z,20.00
2019-05-30T11:48:04.142Z,20.60
2019-05-30T11:50:33.237Z,21.10
2019-05-30T11:53:02.275Z,21.70
2019-05-30T11:55:31.757Z,21.70
2019-05-30T11:58:00.720Z,22.10
2019-05-30T12:00:29.960Z,22.70
2019-05-30T12:02:59.224Z,23.20
2019-05-30T12:05:28.553Z,23.40
2019-05-30T12:07:58.835Z,22.80
2019-05-30T12:10:28.219Z,22.50
2019-05-30T12:12:57.445Z,22.20
2019-05-30T12:15:26.775Z,21.90
2019-05-30T12:17:55.840Z,21.40
2019-05-30T12:20:24.980Z,21.10
2019-05-30T12:22:54.130Z,20.70
2019-05-30T12:25:23.220Z,20.40
2019-05-30T12:27:52.333Z,20.40
2019-05-30T12:30:22.837Z,20.20
2019-05-30T12:32:52.434Z,20.20
2019-05-30T12:35:23.618Z,20.10
2019-05-30T12:37:57.154Z,20.10
2019-05-30T12:40:24.403Z,20.30
2019-05-30T12:42:56.334Z,20.80
2019-05-30T12:45:24.543Z,21.20
2019-05-30T12:47:53.593Z,22.00
2019-05-30T12:50:23.068Z,22.60
2019-05-30T12:52:53.344Z,22.80
2019-05-30T12:55:22.942Z,22.60
2019-05-30T12:57:52.271Z,22.30
2019-05-30T13:00:24.233Z,22.20
2019-05-30T13:02:54.638Z,21.80
2019-05-30T13:05:23.794Z,21.60
2019-05-30T13:07:53.017Z,21.30
2019-05-30T13:10:24.243Z,20.80
2019-05-30T13:12:52.493Z,20.50
2019-05-30T13:15:21.838Z,20.30
2019-05-30T13:17:50.892Z,20.20
2019-05-30T13:20:20.438Z,20.30
2019-05-30T13:22:49.602Z,20.30
2019-05-30T13:25:19.423Z,20.30
2019-05-30T13:27:48.593Z,20.40
2019-05-30T13:30:18.279Z,20.70
2019-05-30T13:32:47.410Z,21.30
2019-05-30T13:35:17.588Z,21.90
2019-05-30T13:37:46.796Z,22.50
2019-05-30T13:40:24.832Z,22.90
2019-05-30T13:42:49.462Z,23.10
2019-05-30T13:45:18.965Z,23.30
2019-05-30T13:47:48.037Z,23.50
2019-05-30T13:50:18.946Z,23.60
2019-05-30T13:52:48.248Z,23.10
2019-05-30T13:55:17.569Z,23.10
2019-05-30T13:57:47.565Z,22.80
2019-05-30T14:00:18.334Z,23.20
2019-05-30T14:02:47.499Z,23.60
2019-05-30T14:05:17.147Z,24.10
2019-05-30T14:07:46.308Z,24.10
2019-05-30T14:10:15.686Z,23.80
2019-05-30T14:12:45.018Z,23.30
2019-05-30T14:15:15.412Z,22.70
2019-05-30T14:17:44.429Z,22.60
2019-05-30T14:20:14.363Z,22.40
2019-05-30T14:22:43.401Z,22.20
2019-05-30T14:25:14.448Z,22.00
2019-05-30T14:27:43.608Z,22.00
2019-05-30T14:30:14.214Z,21.80
2019-05-30T14:32:43.414Z,21.60
2019-05-30T14:35:13.907Z,21.50
2019-05-30T14:37:43.292Z,21.70
2019-05-30T14:40:14.329Z,21.90
2019-05-30T14:42:43.536Z,22.00
2019-05-30T14:45:14.957Z,21.80
2019-05-30T14:47:44.257Z,21.80
2019-05-30T14:50:13.754Z,21.90
2019-05-30T14:52:43.125Z,21.90
2019-05-30T14:55:13.261Z,22.00
2019-05-30T14:57:42.691Z,21.90
2019-05-30T15:00:18.466Z,22.10
2019-05-30T15:02:47.573Z,22.10
2019-05-30T15:05:18.316Z,22.00
2019-05-30T15:07:47.402Z,21.90
2019-05-30T15:10:17.119Z,21.60
2019-05-30T15:12:46.282Z,21.50
2019-05-30T15:15:18.451Z,21.30
2019-05-30T15:17:47.247Z,21.40
2019-05-30T15:20:17.812Z,21.40
2019-05-30T15:22:47.254Z,21.20
2019-05-30T15:25:18.042Z,21.30
2019-05-30T15:27:47.586Z,21.10
2019-05-30T15:30:17.152Z,20.90
2019-05-30T15:32:46.213Z,21.00
2019-05-30T15:35:19.110Z,21.00
2019-05-30T15:37:49.677Z,21.00
2019-05-30T15:40:19.889Z,20.90
2019-05-30T15:42:52.938Z,21.00
2019-05-30T15:45:19.806Z,20.80
2019-05-30T15:47:48.912Z,20.80
2019-05-30T15:50:18.893Z,20.60
2019-05-30T15:52:48.246Z,20.50
2019-05-30T15:55:17.821Z,20.50
2019-05-30T15:57:47.239Z,20.60
2019-05-30T16:00:17.941Z,20.50
2019-05-30T16:02:47.348Z,20.60
2019-05-30T16:05:18.692Z,20.50
2019-05-30T16:07:47.825Z,20.30
2019-05-30T16:10:17.075Z,20.10
2019-05-30T16:12:46.143Z,20.30
2019-05-30T16:15:17.491Z,20.60
2019-05-30T16:17:46.725Z,20.60
2019-05-30T16:20:16.067Z,20.70
2019-05-30T16:22:45.332Z,20.80
2019-05-30T16:25:15.631Z,20.80
2019-05-30T16:27:44.943Z,20.90
2019-05-30T16:30:19.741Z,20.90
2019-05-30T16:32:45.383Z,20.90
2019-05-30T16:35:15.903Z,20.90
2019-05-30T16:37:45.095Z,20.80
2019-05-30T16:40:16.439Z,20.90
2019-05-30T16:42:45.813Z,20.80
2019-05-30T16:45:20.300Z,21.00
2019-05-30T16:47:49.146Z,21.20
2019-05-30T16:50:18.952Z,21.40
2019-05-30T16:52:48.240Z,21.20
2019-05-30T16:55:17.580Z,20.80
2019-05-30T16:57:46.707Z,20.80
2019-05-30T17:00:17.601Z,20.80
2019-05-30T17:02:46.917Z,21.00
2019-05-30T17:05:16.303Z,21.10
2019-05-30T17:07:48.482Z,21.20
2019-05-30T17:10:25.590Z,21.30
2019-05-30T17:12:48.335Z,21.20
2019-05-30T17:15:17.801Z,21.10
2019-05-30T17:17:47.156Z,21.30
2019-05-30T17:20:16.810Z,21.40
2019-05-30T17:22:45.945Z,21.60
2019-05-30T17:25:15.106Z,21.60
2019-05-30T17:27:44.388Z,21.70
2019-05-30T17:30:15.446Z,21.60
2019-05-30T17:32:44.739Z,21.30
2019-05-30T17:35:14.020Z,21.00
2019-05-30T17:37:43.102Z,20.90
2019-05-30T17:40:13.505Z,21.00
2019-05-30T17:42:42.858Z,20.90
2019-05-30T17:45:13.536Z,20.70
2019-05-30T17:47:43.705Z,20.60
2019-05-30T17:50:13.334Z,20.60
2019-05-30T17:52:42.630Z,20.30
2019-05-30T17:55:13.456Z,20.30
2019-05-30T17:57:42.616Z,20.40
2019-05-30T18:00:16.441Z,20.30
2019-05-30T18:02:45.563Z,20.30
2019-05-30T18:05:16.139Z,20.30
2019-05-30T18:07:46.303Z,20.30
2019-05-30T18:10:15.798Z,20.40
2019-05-30T18:12:45.080Z,20.30
2019-05-30T18:15:15.649Z,20.30
2019-05-30T18:17:44.874Z,20.20
2019-05-30T18:20:14.344Z,20.10
2019-05-30T18:22:43.474Z,19.90
2019-05-30T18:25:13.088Z,19.90
2019-05-30T18:27:42.075Z,19.90
2019-05-30T18:30:13.216Z,19.90
2019-05-30T18:32:42.431Z,19.90
2019-05-30T18:35:12.206Z,19.80
2019-05-30T18:37:41.386Z,19.80
2019-05-30T18:40:11.951Z,19.70
2019-05-30T18:42:41.164Z,19.60
2019-05-30T18:45:11.250Z,19.50
2019-05-30T18:47:40.361Z,19.50
2019-05-30T18:50:10.848Z,19.50
2019-05-30T18:52:40.138Z,19.50
2019-05-30T18:55:09.788Z,19.50
2019-05-30T18:57:39.015Z,19.50
2019-05-30T19:00:10.240Z,19.50
2019-05-30T19:02:40.155Z,19.50
2019-05-30T19:05:10.216Z,19.50
2019-05-30T19:07:39.411Z,19.50
2019-05-30T19:10:09.069Z,19.50
2019-05-30T19:12:38.261Z,19.30
2019-05-30T19:15:07.991Z,19.30
2019-05-30T19:17:37.277Z,19.30
2019-05-30T19:20:07.471Z,19.20
2019-05-30T19:22:36.744Z,19.10
2019-05-30T19:25:09.013Z,19.10
2019-05-30T19:27:38.625Z,19.00
2019-05-30T19:30:11.163Z,18.90
2019-05-30T19:32:40.254Z,18.80
2019-05-30T19:35:10.170Z,18.70
2019-05-30T19:37:39.300Z,18.60
2019-05-30T19:40:09.150Z,18.40
2019-05-30T19:42:38.214Z,18.30
2019-05-30T19:45:09.541Z,18.30
2019-05-30T19:47:38.928Z,18.20
2019-05-30T19:50:09.499Z,18.20
2019-05-30T19:52:39.158Z,18.20
2019-05-30T19:55:08.285Z,18.10
2019-05-30T19:57:37.806Z,18.10
2019-05-30T20:00:07.686Z,18.10
2019-05-30T20:02:36.260Z,18.10
2019-05-30T20:05:07.701Z,18.10
2019-05-30T20:07:36.700Z,18.10
2019-05-30T20:10:06.600Z,18.00
2019-05-30T20:12:35.281Z,18.00
2019-05-30T20:15:06.289Z,18.00
2019-05-30T20:17:35.465Z,18.00
2019-05-30T20:20:05.885Z,18.00
2019-05-30T20:22:35.925Z,18.00
2019-05-30T20:25:07.022Z,18.00
2019-05-30T20:27:36.697Z,18.00
2019-05-30T20:30:08.710Z,18.00
2019-05-30T20:32:38.655Z,18.00
2019-05-30T20:35:07.690Z,18.00
2019-05-30T20:37:36.814Z,17.90
2019-05-30T20:40:06.816Z,18.00
2019-05-30T20:42:35.446Z,18.10
2019-05-30T20:45:09.591Z,18.00
2019-05-30T20:47:38.679Z,18.00
2019-05-30T20:50:08.312Z,17.90
2019-05-30T20:52:39.919Z,17.90
2019-05-30T20:55:08.623Z,17.90
2019-05-30T20:57:38.351Z,18.00
2019-05-30T21:00:09.682Z,18.10
2019-05-30T21:02:39.108Z,18.10
2019-05-30T21:05:09.681Z,18.10
2019-05-30T21:07:39.816Z,18.00
2019-05-30T21:10:08.843Z,17.80
2019-05-30T21:12:54.337Z,17.70
2019-05-30T21:15:09.619Z,17.60
2019-05-30T21:17:39.635Z,17.50
2019-05-30T21:20:11.366Z,17.50
2019-05-30T21:22:40.095Z,17.60
2019-05-30T21:25:09.125Z,17.50
2019-05-30T21:27:39.048Z,17.50
2019-05-30T21:30:08.145Z,17.50
2019-05-30T21:32:37.518Z,17.50
2019-05-30T21:35:07.462Z,17.50
2019-05-30T21:37:37.497Z,17.40
2019-05-30T21:40:07.962Z,17.50
2019-05-30T21:42:51.559Z,17.40
2019-05-30T21:45:07.951Z,17.30
2019-05-30T21:47:36.488Z,17.40
2019-05-30T21:50:08.517Z,17.40
2019-05-30T21:52:37.211Z,17.40
2019-05-30T21:55:06.611Z,17.30
2019-05-30T21:57:35.382Z,17.40
2019-05-30T22:00:07.004Z,17.30
2019-05-30T22:02:35.759Z,17.30
2019-05-30T22:05:04.991Z,17.30
2019-05-30T22:07:33.801Z,17.30
2019-05-30T22:10:02.406Z,17.30
2019-05-30T22:12:31.007Z,17.30
2019-05-30T22:14:59.765Z,17.20
2019-05-30T22:17:28.340Z,17.20
2019-05-30T22:19:57.226Z,17.20
2019-05-30T22:22:25.951Z,17.20
2019-05-30T22:24:54.640Z,17.20
2019-05-30T22:27:23.231Z,17.20
2019-05-30T22:29:52.637Z,17.10
2019-05-30T22:32:21.566Z,17.10
2019-05-30T22:34:50.859Z,17.10
2019-05-30T22:37:19.622Z,17.10
2019-05-30T22:39:48.964Z,17.00
2019-05-30T22:42:17.742Z,17.00
2019-05-30T22:44:46.226Z,17.10
2019-05-30T22:47:14.957Z,17.10
2019-05-30T22:49:44.649Z,17.10
2019-05-30T22:52:13.341Z,17.10
2019-05-30T22:54:42.094Z,17.10
2019-05-30T22:57:10.758Z,17.20
2019-05-30T22:59:39.475Z,17.30
2019-05-30T23:02:08.138Z,17.30
2019-05-30T23:04:36.759Z,17.30
2019-05-30T23:07:05.571Z,17.30
2019-05-30T23:09:34.286Z,17.30
2019-05-30T23:12:02.937Z,17.40
2019-05-30T23:14:31.634Z,17.50
2019-05-30T23:17:00.274Z,17.50
2019-05-30T23:19:29.024Z,17.50
2019-05-30T23:21:57.774Z,17.50
2019-05-30T23:24:26.337Z,17.40
2019-05-30T23:26:55.869Z,17.40
2019-05-30T23:29:24.495Z,17.30
2019-05-30T23:31:54.100Z,17.30
2019-05-30T23:34:22.690Z,17.30
2019-05-30T23:36:52.247Z,17.20
2019-05-30T23:39:21.124Z,17.20
2019-05-30T23:41:50.915Z,17.20
2019-05-30T23:44:19.616Z,17.30
2019-05-30T23:46:49.338Z,17.20
2019-05-30T23:49:18.003Z,17.20
2019-05-30T23:51:46.597Z,17.10
2019-05-30T23:54:16.753Z,17.20
2019-05-30T23:56:45.498Z,17.20
2019-05-30T23:59:14.257Z,17.30
